KOVE/OVE METAR and TAF weather

Enter ICAO airport designator
Station Type Date Time Source
KOVE METAR 2020/10/29 16:53 UTC NOAA

KOVE 291653Z AUTO 00000KT 10SM CLR 16/03 A3012 RMK AO2 SLP201 T01560028


Station Type Date Time Source
KOVE Decoded METAR 2020/10/29 16:53 UTC NOAA

OROVILLE MUNICIPAL AIRPORT, CA, United States (KOVE) 39-30N 121-37W 58M
Oct 29, 2020 - 12:53 PM EDT / 2020.10.29 1653 UTC
Wind: Calm:0
Visibility: 10 mile(s):0
Sky conditions: clear
Temperature: 60.1 F (15.6 C)
Dew Point: 37.0 F (2.8 C)
Relative Humidity: 42%
Pressure (altimeter): 30.12 in. Hg (1019 hPa)
ob: KOVE 291653Z AUTO 00000KT 10SM CLR 16/03 A3012 RMK AO2 SLP201 T01560028
cycle: 17

Station Type Date Time Source
KOVE TAF UTC NOAA

Error!

Example: see airport list